sensor_id;sensor_type;location;lat;lon;timestamp;temperature;humidity
48836;DHT22;62581;47.342;7.908;2022-12-08T00:01:26;2.10;99.90
48836;DHT22;62581;47.342;7.908;2022-12-08T00:03:53;2.20;99.90
48836;DHT22;62581;47.342;7.908;2022-12-08T00:06:24;2.20;99.90
48836;DHT22;62581;47.342;7.908;2022-12-08T00:09:13;2.20;99.90
48836;DHT22;62581;47.342;7.908;2022-12-08T00:11:52;2.20;99.90
48836;DHT22;62581;47.342;7.908;2022-12-08T00:14:23;2.30;99.90
48836;DHT22;62581;47.342;7.908;2022-12-08T00:16:50;2.20;99.90
48836;DHT22;62581;47.342;7.908;2022-12-08T00:19:17;2.20;99.90
48836;DHT22;62581;47.342;7.908;2022-12-08T00:21:44;2.10;99.90
48836;DHT22;62581;47.342;7.908;2022-12-08T00:24:11;2.10;99.90
48836;DHT22;62581;47.342;7.908;2022-12-08T00:26:38;2.10;99.90
48836;DHT22;62581;47.342;7.908;2022-12-08T00:29:05;2.10;99.90
48836;DHT22;62581;47.342;7.908;2022-12-08T00:31:34;2.10;99.90
48836;DHT22;62581;47.342;7.908;2022-12-08T00:34:01;2.10;99.90
48836;DHT22;62581;47.342;7.908;2022-12-08T00:36:28;2.10;99.90
48836;DHT22;62581;47.342;7.908;2022-12-08T00:38:55;2.20;99.90
48836;DHT22;62581;47.342;7.908;2022-12-08T00:41:24;2.20;99.90
48836;DHT22;62581;47.342;7.908;2022-12-08T00:44:05;2.30;99.90
48836;DHT22;62581;47.342;7.908;2022-12-08T00:46:33;2.30;99.90
48836;DHT22;62581;47.342;7.908;2022-12-08T00:49:00;2.30;99.90
48836;DHT22;62581;47.342;7.908;2022-12-08T00:51:28;2.30;99.90
48836;DHT22;62581;47.342;7.908;2022-12-08T00:53:55;2.30;99.90
48836;DHT22;62581;47.342;7.908;2022-12-08T00:56:22;2.30;99.90
48836;DHT22;62581;47.342;7.908;2022-12-08T00:58:49;2.40;99.90
48836;DHT22;62581;47.342;7.908;2022-12-08T01:01:16;2.40;99.90
48836;DHT22;62581;47.342;7.908;2022-12-08T01:03:44;2.40;99.90
48836;DHT22;62581;47.342;7.908;2022-12-08T01:06:11;2.40;99.90
48836;DHT22;62581;47.342;7.908;2022-12-08T01:08:39;2.40;99.90
48836;DHT22;62581;47.342;7.908;2022-12-08T01:11:08;2.30;99.90
48836;DHT22;62581;47.342;7.908;2022-12-08T01:13:36;2.40;99.90
48836;DHT22;62581;47.342;7.908;2022-12-08T01:16:06;2.40;99.90
48836;DHT22;62581;47.342;7.908;2022-12-08T01:18:34;2.40;99.90
48836;DHT22;62581;47.342;7.908;2022-12-08T01:21:04;2.40;99.90
48836;DHT22;62581;47.342;7.908;2022-12-08T01:23:31;2.40;99.90
48836;DHT22;62581;47.342;7.908;2022-12-08T01:26:01;2.40;99.90
48836;DHT22;62581;47.342;7.908;2022-12-08T01:28:28;2.40;99.90
48836;DHT22;62581;47.342;7.908;2022-12-08T01:30:56;2.40;99.90
48836;DHT22;62581;47.342;7.908;2022-12-08T01:33:23;2.30;99.90
48836;DHT22;62581;47.342;7.908;2022-12-08T01:35:50;2.30;99.90
48836;DHT22;62581;47.342;7.908;2022-12-08T01:38:19;2.20;99.90
48836;DHT22;62581;47.342;7.908;2022-12-08T01:40:46;2.30;99.90
48836;DHT22;62581;47.342;7.908;2022-12-08T01:43:15;2.30;99.90
48836;DHT22;62581;47.342;7.908;2022-12-08T01:45:42;2.30;99.90
48836;DHT22;62581;47.342;7.908;2022-12-08T01:48:12;2.30;99.90
48836;DHT22;62581;47.342;7.908;2022-12-08T01:50:42;2.30;99.90
48836;DHT22;62581;47.342;7.908;2022-12-08T01:53:12;2.30;99.90
48836;DHT22;62581;47.342;7.908;2022-12-08T01:55:45;2.20;99.90
48836;DHT22;62581;47.342;7.908;2022-12-08T01:58:17;2.20;99.90
48836;DHT22;62581;47.342;7.908;2022-12-08T02:00:45;2.20;99.90
48836;DHT22;62581;47.342;7.908;2022-12-08T02:03:16;2.20;99.90
48836;DHT22;62581;47.342;7.908;2022-12-08T02:05:45;2.20;99.90
48836;DHT22;62581;47.342;7.908;2022-12-08T02:08:13;2.10;99.90
48836;DHT22;62581;47.342;7.908;2022-12-08T02:10:42;2.10;99.90
48836;DHT22;62581;47.342;7.908;2022-12-08T02:13:12;2.10;99.90
48836;DHT22;62581;47.342;7.908;2022-12-08T02:15:48;2.10;99.90
48836;DHT22;62581;47.342;7.908;2022-12-08T02:18:30;2.10;99.90
48836;DHT22;62581;47.342;7.908;2022-12-08T02:21:04;2.10;99.90
48836;DHT22;62581;47.342;7.908;2022-12-08T02:23:39;2.10;99.90
48836;DHT22;62581;47.342;7.908;2022-12-08T02:29:38;2.10;99.90
48836;DHT22;62581;47.342;7.908;2022-12-08T02:32:22;2.20;99.90
48836;DHT22;62581;47.342;7.908;2022-12-08T02:34:57;2.20;99.90
48836;DHT22;62581;47.342;7.908;2022-12-08T02:37:28;2.20;99.90
48836;DHT22;62581;47.342;7.908;2022-12-08T02:40:00;2.10;99.90
48836;DHT22;62581;47.342;7.908;2022-12-08T02:42:31;2.00;99.90
48836;DHT22;62581;47.342;7.908;2022-12-08T02:45:03;2.00;99.90
48836;DHT22;62581;47.342;7.908;2022-12-08T02:47:33;1.90;99.90
48836;DHT22;62581;47.342;7.908;2022-12-08T02:50:02;1.90;99.90
48836;DHT22;62581;47.342;7.908;2022-12-08T02:52:39;1.90;99.90
48836;DHT22;62581;47.342;7.908;2022-12-08T02:55:10;1.80;99.90
48836;DHT22;62581;47.342;7.908;2022-12-08T02:57:48;1.80;99.90
48836;DHT22;62581;47.342;7.908;2022-12-08T03:00:20;1.80;99.90
48836;DHT22;62581;47.342;7.908;2022-12-08T03:02:58;1.80;99.90
48836;DHT22;62581;47.342;7.908;2022-12-08T03:05:45;1.80;99.90
48836;DHT22;62581;47.342;7.908;2022-12-08T03:08:23;1.80;99.90
48836;DHT22;62581;47.342;7.908;2022-12-08T03:10:59;1.90;99.90
48836;DHT22;62581;47.342;7.908;2022-12-08T03:13:31;1.90;99.90
48836;DHT22;62581;47.342;7.908;2022-12-08T03:16:00;1.90;99.90
48836;DHT22;62581;47.342;7.908;2022-12-08T03:18:36;1.90;99.90
48836;DHT22;62581;47.342;7.908;2022-12-08T03:21:05;2.00;99.90
48836;DHT22;62581;47.342;7.908;2022-12-08T03:23:35;2.00;99.90
48836;DHT22;62581;47.342;7.908;2022-12-08T03:26:10;2.00;99.90
48836;DHT22;62581;47.342;7.908;2022-12-08T03:28:38;2.00;99.90
48836;DHT22;62581;47.342;7.908;2022-12-08T03:31:06;2.00;99.90
48836;DHT22;62581;47.342;7.908;2022-12-08T03:33:36;2.00;99.90
48836;DHT22;62581;47.342;7.908;2022-12-08T03:36:07;2.00;99.90
48836;DHT22;62581;47.342;7.908;2022-12-08T03:38:39;2.00;99.90
48836;DHT22;62581;47.342;7.908;2022-12-08T03:41:06;2.00;99.90
48836;DHT22;62581;47.342;7.908;2022-12-08T03:43:46;2.00;99.90
48836;DHT22;62581;47.342;7.908;2022-12-08T03:46:13;2.00;99.90
48836;DHT22;62581;47.342;7.908;2022-12-08T03:48:40;2.00;99.90
48836;DHT22;62581;47.342;7.908;2022-12-08T03:51:09;2.00;99.90
48836;DHT22;62581;47.342;7.908;2022-12-08T03:53:36;2.00;99.90
48836;DHT22;62581;47.342;7.908;2022-12-08T03:56:04;2.00;99.90
48836;DHT22;62581;47.342;7.908;2022-12-08T03:58:31;2.00;99.90
48836;DHT22;62581;47.342;7.908;2022-12-08T04:00:59;1.90;99.90
48836;DHT22;62581;47.342;7.908;2022-12-08T04:03:25;1.90;99.90
48836;DHT22;62581;47.342;7.908;2022-12-08T04:05:52;1.80;99.90
48836;DHT22;62581;47.342;7.908;2022-12-08T04:08:21;1.80;99.90
48836;DHT22;62581;47.342;7.908;2022-12-08T04:10:48;1.70;99.90
48836;DHT22;62581;47.342;7.908;2022-12-08T04:13:15;1.60;99.90
48836;DHT22;62581;47.342;7.908;2022-12-08T04:15:44;1.60;99.90
48836;DHT22;62581;47.342;7.908;2022-12-08T04:18:12;1.60;99.90
48836;DHT22;62581;47.342;7.908;2022-12-08T04:20:39;1.60;99.90
48836;DHT22;62581;47.342;7.908;2022-12-08T04:23:06;1.50;99.90
48836;DHT22;62581;47.342;7.908;2022-12-08T04:25:35;1.40;99.90
48836;DHT22;62581;47.342;7.908;2022-12-08T04:28:03;1.30;99.90
48836;DHT22;62581;47.342;7.908;2022-12-08T04:30:31;1.20;99.90
48836;DHT22;62581;47.342;7.908;2022-12-08T04:32:58;1.20;99.90
48836;DHT22;62581;47.342;7.908;2022-12-08T04:35:25;1.20;99.90
48836;DHT22;62581;47.342;7.908;2022-12-08T04:37:52;1.10;99.90
48836;DHT22;62581;47.342;7.908;2022-12-08T04:40:19;1.10;99.90
48836;DHT22;62581;47.342;7.908;2022-12-08T04:42:47;1.00;99.90
48836;DHT22;62581;47.342;7.908;2022-12-08T04:45:14;1.00;99.90
48836;DHT22;62581;47.342;7.908;2022-12-08T04:47:41;1.00;99.90
48836;DHT22;62581;47.342;7.908;2022-12-08T04:50:09;1.00;99.90
48836;DHT22;62581;47.342;7.908;2022-12-08T04:52:36;1.00;99.90
48836;DHT22;62581;47.342;7.908;2022-12-08T04:55:03;1.00;99.90
48836;DHT22;62581;47.342;7.908;2022-12-08T04:57:30;1.00;99.90
48836;DHT22;62581;47.342;7.908;2022-12-08T04:59:59;0.90;99.90
48836;DHT22;62581;47.342;7.908;2022-12-08T05:02:29;0.90;99.90
48836;DHT22;62581;47.342;7.908;2022-12-08T05:04:55;1.00;99.90
48836;DHT22;62581;47.342;7.908;2022-12-08T05:07:22;0.90;99.90
48836;DHT22;62581;47.342;7.908;2022-12-08T05:09:49;1.00;99.90
48836;DHT22;62581;47.342;7.908;2022-12-08T05:12:16;1.00;99.90
48836;DHT22;62581;47.342;7.908;2022-12-08T05:14:43;1.00;99.90
48836;DHT22;62581;47.342;7.908;2022-12-08T05:17:13;1.00;99.90
48836;DHT22;62581;47.342;7.908;2022-12-08T05:19:40;1.20;99.90
48836;DHT22;62581;47.342;7.908;2022-12-08T05:22:07;1.30;99.90
48836;DHT22;62581;47.342;7.908;2022-12-08T05:24:37;1.40;99.90
48836;DHT22;62581;47.342;7.908;2022-12-08T05:27:04;1.40;99.90
48836;DHT22;62581;47.342;7.908;2022-12-08T05:29:31;1.50;99.90
48836;DHT22;62581;47.342;7.908;2022-12-08T05:31:58;1.60;99.90
48836;DHT22;62581;47.342;7.908;2022-12-08T05:34:27;1.60;99.90
48836;DHT22;62581;47.342;7.908;2022-12-08T05:36:54;1.60;99.90
48836;DHT22;62581;47.342;7.908;2022-12-08T05:39:21;1.70;99.90
48836;DHT22;62581;47.342;7.908;2022-12-08T05:41:48;1.70;99.90
48836;DHT22;62581;47.342;7.908;2022-12-08T05:44:15;1.80;99.90
48836;DHT22;62581;47.342;7.908;2022-12-08T05:46:42;1.80;99.90
48836;DHT22;62581;47.342;7.908;2022-12-08T05:49:09;1.90;99.90
48836;DHT22;62581;47.342;7.908;2022-12-08T05:51:37;1.90;99.90
48836;DHT22;62581;47.342;7.908;2022-12-08T05:54:04;1.90;99.90
48836;DHT22;62581;47.342;7.908;2022-12-08T05:56:31;1.90;99.90
48836;DHT22;62581;47.342;7.908;2022-12-08T05:58:58;2.00;99.90
48836;DHT22;62581;47.342;7.908;2022-12-08T06:01:27;2.00;99.90
48836;DHT22;62581;47.342;7.908;2022-12-08T06:03:55;2.00;99.90
48836;DHT22;62581;47.342;7.908;2022-12-08T06:06:22;2.00;99.90
48836;DHT22;62581;47.342;7.908;2022-12-08T06:08:51;2.10;99.90
48836;DHT22;62581;47.342;7.908;2022-12-08T06:11:18;2.20;99.90
48836;DHT22;62581;47.342;7.908;2022-12-08T06:13:46;2.30;99.90
48836;DHT22;62581;47.342;7.908;2022-12-08T06:16:13;2.30;99.90
48836;DHT22;62581;47.342;7.908;2022-12-08T06:18:40;2.30;99.90
48836;DHT22;62581;47.342;7.908;2022-12-08T06:21:08;2.20;99.90
48836;DHT22;62581;47.342;7.908;2022-12-08T06:23:36;2.30;99.90
48836;DHT22;62581;47.342;7.908;2022-12-08T06:26:06;2.30;99.90
48836;DHT22;62581;47.342;7.908;2022-12-08T06:28:34;2.30;99.90
48836;DHT22;62581;47.342;7.908;2022-12-08T06:31:06;2.30;99.90
48836;DHT22;62581;47.342;7.908;2022-12-08T06:33:33;2.30;99.90
48836;DHT22;62581;47.342;7.908;2022-12-08T06:36:00;2.30;99.90
48836;DHT22;62581;47.342;7.908;2022-12-08T06:38:27;2.30;99.90
48836;DHT22;62581;47.342;7.908;2022-12-08T06:40:54;2.40;99.90
48836;DHT22;62581;47.342;7.908;2022-12-08T06:43:23;2.30;99.90
48836;DHT22;62581;47.342;7.908;2022-12-08T06:45:50;2.30;99.90
48836;DHT22;62581;47.342;7.908;2022-12-08T06:48:18;2.30;99.90
48836;DHT22;62581;47.342;7.908;2022-12-08T06:50:45;2.30;99.90
48836;DHT22;62581;47.342;7.908;2022-12-08T06:53:12;2.40;99.90
48836;DHT22;62581;47.342;7.908;2022-12-08T06:55:42;2.40;99.90
48836;DHT22;62581;47.342;7.908;2022-12-08T06:58:10;2.50;99.90
48836;DHT22;62581;47.342;7.908;2022-12-08T07:00:40;2.50;99.90
48836;DHT22;62581;47.342;7.908;2022-12-08T07:03:07;2.50;99.90
48836;DHT22;62581;47.342;7.908;2022-12-08T07:05:34;2.50;99.90
48836;DHT22;62581;47.342;7.908;2022-12-08T07:08:01;2.50;99.90
48836;DHT22;62581;47.342;7.908;2022-12-08T07:10:28;2.50;99.90
48836;DHT22;62581;47.342;7.908;2022-12-08T07:12:56;2.60;99.90
48836;DHT22;62581;47.342;7.908;2022-12-08T07:15:23;2.60;99.90
48836;DHT22;62581;47.342;7.908;2022-12-08T07:17:51;2.60;99.90
48836;DHT22;62581;47.342;7.908;2022-12-08T07:20:18;2.70;99.90
48836;DHT22;62581;47.342;7.908;2022-12-08T07:22:47;2.60;99.90
48836;DHT22;62581;47.342;7.908;2022-12-08T07:25:16;2.70;99.90
48836;DHT22;62581;47.342;7.908;2022-12-08T07:27:43;2.60;99.90
48836;DHT22;62581;47.342;7.908;2022-12-08T07:30:11;2.60;99.90
48836;DHT22;62581;47.342;7.908;2022-12-08T07:32:38;2.70;99.90
48836;DHT22;62581;47.342;7.908;2022-12-08T07:35:08;2.70;99.90
48836;DHT22;62581;47.342;7.908;2022-12-08T07:37:36;2.70;99.90
48836;DHT22;62581;47.342;7.908;2022-12-08T07:40:04;2.70;99.90
48836;DHT22;62581;47.342;7.908;2022-12-08T07:42:31;2.70;99.90
48836;DHT22;62581;47.342;7.908;2022-12-08T07:44:58;2.80;99.90
48836;DHT22;62581;47.342;7.908;2022-12-08T07:47:25;2.70;99.90
48836;DHT22;62581;47.342;7.908;2022-12-08T07:49:52;2.70;99.90
48836;DHT22;62581;47.342;7.908;2022-12-08T07:52:20;2.70;99.90
48836;DHT22;62581;47.342;7.908;2022-12-08T07:54:47;2.80;99.90
48836;DHT22;62581;47.342;7.908;2022-12-08T07:57:14;2.80;99.90
48836;DHT22;62581;47.342;7.908;2022-12-08T07:59:41;2.90;99.90
48836;DHT22;62581;47.342;7.908;2022-12-08T08:02:15;2.90;99.90
48836;DHT22;62581;47.342;7.908;2022-12-08T08:04:43;3.00;99.90
48836;DHT22;62581;47.342;7.908;2022-12-08T08:07:10;3.00;99.90
48836;DHT22;62581;47.342;7.908;2022-12-08T08:09:38;3.00;99.90
48836;DHT22;62581;47.342;7.908;2022-12-08T08:12:05;3.00;99.90
48836;DHT22;62581;47.342;7.908;2022-12-08T08:14:32;3.10;99.90
48836;DHT22;62581;47.342;7.908;2022-12-08T08:16:59;3.10;99.90
48836;DHT22;62581;47.342;7.908;2022-12-08T08:19:26;3.10;99.90
48836;DHT22;62581;47.342;7.908;2022-12-08T08:21:54;3.20;99.90
48836;DHT22;62581;47.342;7.908;2022-12-08T08:24:21;3.20;99.90
48836;DHT22;62581;47.342;7.908;2022-12-08T08:26:50;3.30;99.90
48836;DHT22;62581;47.342;7.908;2022-12-08T08:29:20;3.30;99.90
48836;DHT22;62581;47.342;7.908;2022-12-08T08:31:47;3.40;99.90
48836;DHT22;62581;47.342;7.908;2022-12-08T08:34:14;3.40;99.90
48836;DHT22;62581;47.342;7.908;2022-12-08T08:36:41;3.40;99.90
48836;DHT22;62581;47.342;7.908;2022-12-08T08:39:08;3.40;99.90
48836;DHT22;62581;47.342;7.908;2022-12-08T08:41:35;3.50;99.90
48836;DHT22;62581;47.342;7.908;2022-12-08T08:44:04;3.60;99.90
48836;DHT22;62581;47.342;7.908;2022-12-08T08:46:30;3.60;99.90
48836;DHT22;62581;47.342;7.908;2022-12-08T08:48:57;3.60;99.90
48836;DHT22;62581;47.342;7.908;2022-12-08T08:51:24;3.60;99.90
48836;DHT22;62581;47.342;7.908;2022-12-08T08:53:51;3.70;99.90
48836;DHT22;62581;47.342;7.908;2022-12-08T08:56:18;3.70;99.90
48836;DHT22;62581;47.342;7.908;2022-12-08T08:58:46;3.70;99.90
48836;DHT22;62581;47.342;7.908;2022-12-08T09:01:16;3.70;99.90
48836;DHT22;62581;47.342;7.908;2022-12-08T09:03:44;3.60;99.90
48836;DHT22;62581;47.342;7.908;2022-12-08T09:06:12;3.60;99.90
48836;DHT22;62581;47.342;7.908;2022-12-08T09:08:40;3.60;99.90
48836;DHT22;62581;47.342;7.908;2022-12-08T09:11:07;3.70;99.90
48836;DHT22;62581;47.342;7.908;2022-12-08T09:13:35;3.70;99.90
48836;DHT22;62581;47.342;7.908;2022-12-08T09:16:02;3.90;99.90
48836;DHT22;62581;47.342;7.908;2022-12-08T09:18:31;3.90;99.90
48836;DHT22;62581;47.342;7.908;2022-12-08T09:21:03;4.00;99.90
48836;DHT22;62581;47.342;7.908;2022-12-08T09:23:30;4.00;99.90
48836;DHT22;62581;47.342;7.908;2022-12-08T09:25:57;4.00;99.90
48836;DHT22;62581;47.342;7.908;2022-12-08T09:28:24;4.10;99.90
48836;DHT22;62581;47.342;7.908;2022-12-08T09:30:51;4.20;99.90
48836;DHT22;62581;47.342;7.908;2022-12-08T09:33:18;4.30;99.90
48836;DHT22;62581;47.342;7.908;2022-12-08T09:35:46;4.40;99.90
48836;DHT22;62581;47.342;7.908;2022-12-08T09:38:13;4.50;99.90
48836;DHT22;62581;47.342;7.908;2022-12-08T09:40:47;4.60;99.90
48836;DHT22;62581;47.342;7.908;2022-12-08T09:43:26;4.70;99.90
48836;DHT22;62581;47.342;7.908;2022-12-08T09:45:58;4.70;99.90
48836;DHT22;62581;47.342;7.908;2022-12-08T09:48:33;4.80;99.90
48836;DHT22;62581;47.342;7.908;2022-12-08T09:51:05;4.90;99.90
48836;DHT22;62581;47.342;7.908;2022-12-08T09:53:33;5.00;99.90
48836;DHT22;62581;47.342;7.908;2022-12-08T09:56:03;5.00;99.90
48836;DHT22;62581;47.342;7.908;2022-12-08T09:58:39;5.00;99.90
48836;DHT22;62581;47.342;7.908;2022-12-08T10:01:09;5.00;99.90
48836;DHT22;62581;47.342;7.908;2022-12-08T10:03:36;5.10;99.90
48836;DHT22;62581;47.342;7.908;2022-12-08T10:06:08;5.20;99.90
48836;DHT22;62581;47.342;7.908;2022-12-08T10:08:42;5.40;99.90
48836;DHT22;62581;47.342;7.908;2022-12-08T10:11:14;5.40;99.90
48836;DHT22;62581;47.342;7.908;2022-12-08T10:13:51;5.60;99.90
48836;DHT22;62581;47.342;7.908;2022-12-08T10:16:27;5.70;99.90
48836;DHT22;62581;47.342;7.908;2022-12-08T10:19:00;5.90;99.90
48836;DHT22;62581;47.342;7.908;2022-12-08T10:21:29;6.00;99.90
48836;DHT22;62581;47.342;7.908;2022-12-08T10:24:03;6.10;99.90
48836;DHT22;62581;47.342;7.908;2022-12-08T10:26:31;6.20;99.90
48836;DHT22;62581;47.342;7.908;2022-12-08T10:29:00;6.30;99.90
48836;DHT22;62581;47.342;7.908;2022-12-08T10:31:29;6.30;99.90
48836;DHT22;62581;47.342;7.908;2022-12-08T10:33:58;6.40;99.90
48836;DHT22;62581;47.342;7.908;2022-12-08T10:36:45;6.40;99.90
48836;DHT22;62581;47.342;7.908;2022-12-08T10:39:33;6.50;99.90
48836;DHT22;62581;47.342;7.908;2022-12-08T10:42:05;6.60;99.90
48836;DHT22;62581;47.342;7.908;2022-12-08T10:44:33;6.60;99.90
48836;DHT22;62581;47.342;7.908;2022-12-08T10:47:11;6.60;99.90
48836;DHT22;62581;47.342;7.908;2022-12-08T10:49:38;6.60;99.90
48836;DHT22;62581;47.342;7.908;2022-12-08T10:52:21;6.50;99.90
48836;DHT22;62581;47.342;7.908;2022-12-08T10:54:51;6.50;99.90
48836;DHT22;62581;47.342;7.908;2022-12-08T10:57:21;6.40;99.90
48836;DHT22;62581;47.342;7.908;2022-12-08T10:59:53;6.40;99.90
48836;DHT22;62581;47.342;7.908;2022-12-08T11:02:20;6.40;99.90
48836;DHT22;62581;47.342;7.908;2022-12-08T11:04:55;6.40;99.90
48836;DHT22;62581;47.342;7.908;2022-12-08T11:07:25;6.40;99.90
48836;DHT22;62581;47.342;7.908;2022-12-08T11:09:56;6.50;99.90
48836;DHT22;62581;47.342;7.908;2022-12-08T11:12:26;6.50;99.90
48836;DHT22;62581;47.342;7.908;2022-12-08T11:14:56;6.60;99.90
48836;DHT22;62581;47.342;7.908;2022-12-08T11:17:28;6.70;99.90
48836;DHT22;62581;47.342;7.908;2022-12-08T11:20:19;6.70;99.90
48836;DHT22;62581;47.342;7.908;2022-12-08T11:22:51;7.00;99.90
48836;DHT22;62581;47.342;7.908;2022-12-08T11:25:20;7.30;99.90
48836;DHT22;62581;47.342;7.908;2022-12-08T11:27:50;7.60;99.90
48836;DHT22;62581;47.342;7.908;2022-12-08T11:30:19;8.00;99.90
48836;DHT22;62581;47.342;7.908;2022-12-08T11:32:48;8.40;99.90
48836;DHT22;62581;47.342;7.908;2022-12-08T11:35:23;8.70;99.90
48836;DHT22;62581;47.342;7.908;2022-12-08T11:37:56;9.00;99.90
48836;DHT22;62581;47.342;7.908;2022-12-08T11:40:27;9.30;99.90
48836;DHT22;62581;47.342;7.908;2022-12-08T11:43:03;9.50;99.90
48836;DHT22;62581;47.342;7.908;2022-12-08T11:45:34;9.60;99.90
48836;DHT22;62581;47.342;7.908;2022-12-08T11:48:08;9.80;99.90
48836;DHT22;62581;47.342;7.908;2022-12-08T11:50:41;10.00;99.90
48836;DHT22;62581;47.342;7.908;2022-12-08T11:53:17;10.20;99.90
48836;DHT22;62581;47.342;7.908;2022-12-08T11:55:51;10.40;99.90
48836;DHT22;62581;47.342;7.908;2022-12-08T11:58:22;10.60;99.90
48836;DHT22;62581;47.342;7.908;2022-12-08T12:00:51;10.80;99.90
48836;DHT22;62581;47.342;7.908;2022-12-08T12:03:24;11.00;99.90
48836;DHT22;62581;47.342;7.908;2022-12-08T12:08:56;11.30;99.90
48836;DHT22;62581;47.342;7.908;2022-12-08T12:11:32;11.40;99.90
48836;DHT22;62581;47.342;7.908;2022-12-08T12:14:30;11.50;99.90
48836;DHT22;62581;47.342;7.908;2022-12-08T12:17:03;11.60;99.90
48836;DHT22;62581;47.342;7.908;2022-12-08T12:19:35;11.70;99.90
48836;DHT22;62581;47.342;7.908;2022-12-08T12:22:11;11.40;99.90
48836;DHT22;62581;47.342;7.908;2022-12-08T12:24:44;11.40;99.90
48836;DHT22;62581;47.342;7.908;2022-12-08T12:27:22;11.30;99.90
48836;DHT22;62581;47.342;7.908;2022-12-08T12:29:55;11.40;99.90
48836;DHT22;62581;47.342;7.908;2022-12-08T12:32:23;11.70;99.90
48836;DHT22;62581;47.342;7.908;2022-12-08T12:34:53;12.00;99.90
48836;DHT22;62581;47.342;7.908;2022-12-08T12:37:23;12.10;99.90
48836;DHT22;62581;47.342;7.908;2022-12-08T12:39:58;12.00;99.90
48836;DHT22;62581;47.342;7.908;2022-12-08T12:42:36;11.90;99.90
48836;DHT22;62581;47.342;7.908;2022-12-08T12:45:22;11.70;99.90
48836;DHT22;62581;47.342;7.908;2022-12-08T12:47:50;11.60;99.90
48836;DHT22;62581;47.342;7.908;2022-12-08T12:50:43;11.60;99.90
48836;DHT22;62581;47.342;7.908;2022-12-08T12:53:45;11.80;99.90
48836;DHT22;62581;47.342;7.908;2022-12-08T12:56:47;12.10;99.90
48836;DHT22;62581;47.342;7.908;2022-12-08T12:59:40;12.40;99.80
48836;DHT22;62581;47.342;7.908;2022-12-08T13:02:19;12.40;98.30
48836;DHT22;62581;47.342;7.908;2022-12-08T13:04:57;12.50;98.50
48836;DHT22;62581;47.342;7.908;2022-12-08T13:07:27;12.60;98.20
48836;DHT22;62581;47.342;7.908;2022-12-08T13:09:59;12.70;98.40
48836;DHT22;62581;47.342;7.908;2022-12-08T13:12:28;12.70;98.00
48836;DHT22;62581;47.342;7.908;2022-12-08T13:15:01;12.70;97.80
48836;DHT22;62581;47.342;7.908;2022-12-08T13:17:30;12.10;98.50
48836;DHT22;62581;47.342;7.908;2022-12-08T13:20:00;11.80;99.20
48836;DHT22;62581;47.342;7.908;2022-12-08T13:22:48;11.50;98.80
48836;DHT22;62581;47.342;7.908;2022-12-08T13:28:28;11.20;99.40
48836;DHT22;62581;47.342;7.908;2022-12-08T13:30:57;11.30;99.50
48836;DHT22;62581;47.342;7.908;2022-12-08T13:33:30;11.40;99.70
48836;DHT22;62581;47.342;7.908;2022-12-08T13:36:11;11.50;99.40
48836;DHT22;62581;47.342;7.908;2022-12-08T13:38:43;11.50;98.80
48836;DHT22;62581;47.342;7.908;2022-12-08T13:41:16;11.30;99.70
48836;DHT22;62581;47.342;7.908;2022-12-08T13:43:49;11.10;99.90
48836;DHT22;62581;47.342;7.908;2022-12-08T13:46:28;10.80;99.30
48836;DHT22;62581;47.342;7.908;2022-12-08T13:48:58;10.60;99.90
48836;DHT22;62581;47.342;7.908;2022-12-08T13:51:29;10.70;99.90
48836;DHT22;62581;47.342;7.908;2022-12-08T13:54:05;10.60;99.90
48836;DHT22;62581;47.342;7.908;2022-12-08T13:56:38;10.50;99.90
48836;DHT22;62581;47.342;7.908;2022-12-08T13:59:09;10.60;99.90
48836;DHT22;62581;47.342;7.908;2022-12-08T14:01:49;10.40;99.90
48836;DHT22;62581;47.342;7.908;2022-12-08T14:04:18;10.10;99.90
48836;DHT22;62581;47.342;7.908;2022-12-08T14:06:47;10.00;99.90
48836;DHT22;62581;47.342;7.908;2022-12-08T14:09:17;10.00;99.90
48836;DHT22;62581;47.342;7.908;2022-12-08T14:11:46;10.20;99.90
48836;DHT22;62581;47.342;7.908;2022-12-08T14:14:19;10.30;99.90
48836;DHT22;62581;47.342;7.908;2022-12-08T14:16:53;10.30;99.90
48836;DHT22;62581;47.342;7.908;2022-12-08T14:19:21;10.10;99.90
48836;DHT22;62581;47.342;7.908;2022-12-08T14:21:57;10.20;99.90
48836;DHT22;62581;47.342;7.908;2022-12-08T14:24:27;10.50;99.90
48836;DHT22;62581;47.342;7.908;2022-12-08T14:26:55;10.80;99.90
48836;DHT22;62581;47.342;7.908;2022-12-08T14:29:36;10.70;99.90
48836;DHT22;62581;47.342;7.908;2022-12-08T14:32:05;10.40;99.90
48836;DHT22;62581;47.342;7.908;2022-12-08T14:34:36;10.00;99.90
48836;DHT22;62581;47.342;7.908;2022-12-08T14:37:10;9.50;99.90
48836;DHT22;62581;47.342;7.908;2022-12-08T14:39:38;9.10;99.90
48836;DHT22;62581;47.342;7.908;2022-12-08T14:42:06;8.70;99.90
48836;DHT22;62581;47.342;7.908;2022-12-08T14:44:37;8.50;99.90
48836;DHT22;62581;47.342;7.908;2022-12-08T14:47:07;8.20;99.90
48836;DHT22;62581;47.342;7.908;2022-12-08T14:49:36;8.00;99.90
48836;DHT22;62581;47.342;7.908;2022-12-08T14:52:08;7.80;99.90
48836;DHT22;62581;47.342;7.908;2022-12-08T14:54:36;7.70;99.90
48836;DHT22;62581;47.342;7.908;2022-12-08T14:57:04;7.50;99.90
48836;DHT22;62581;47.342;7.908;2022-12-08T14:59:35;7.40;99.90
48836;DHT22;62581;47.342;7.908;2022-12-08T15:02:20;7.30;99.90
48836;DHT22;62581;47.342;7.908;2022-12-08T15:04:55;7.20;99.90
48836;DHT22;62581;47.342;7.908;2022-12-08T15:07:25;7.10;99.90
48836;DHT22;62581;47.342;7.908;2022-12-08T15:13:04;6.80;99.90
48836;DHT22;62581;47.342;7.908;2022-12-08T15:15:46;6.70;99.90
48836;DHT22;62581;47.342;7.908;2022-12-08T15:18:15;6.60;99.90
48836;DHT22;62581;47.342;7.908;2022-12-08T15:20:44;6.50;99.90
48836;DHT22;62581;47.342;7.908;2022-12-08T15:23:25;6.40;99.90
48836;DHT22;62581;47.342;7.908;2022-12-08T15:25:54;6.30;99.90
48836;DHT22;62581;47.342;7.908;2022-12-08T15:28:22;6.30;99.90
48836;DHT22;62581;47.342;7.908;2022-12-08T15:30:51;6.20;99.90
48836;DHT22;62581;47.342;7.908;2022-12-08T15:33:18;6.10;99.90
48836;DHT22;62581;47.342;7.908;2022-12-08T15:35:46;5.80;99.90
48836;DHT22;62581;47.342;7.908;2022-12-08T15:38:19;5.70;99.90
48836;DHT22;62581;47.342;7.908;2022-12-08T15:40:47;5.60;99.90
48836;DHT22;62581;47.342;7.908;2022-12-08T15:43:14;5.50;99.90
48836;DHT22;62581;47.342;7.908;2022-12-08T15:45:41;5.50;99.90
48836;DHT22;62581;47.342;7.908;2022-12-08T15:48:15;5.40;99.90
48836;DHT22;62581;47.342;7.908;2022-12-08T15:50:43;5.40;99.90
48836;DHT22;62581;47.342;7.908;2022-12-08T15:53:10;5.30;99.90
48836;DHT22;62581;47.342;7.908;2022-12-08T15:55:37;5.20;99.90
48836;DHT22;62581;47.342;7.908;2022-12-08T15:58:04;5.20;99.90
48836;DHT22;62581;47.342;7.908;2022-12-08T16:00:33;5.10;99.90
48836;DHT22;62581;47.342;7.908;2022-12-08T16:03:01;5.00;99.90
48836;DHT22;62581;47.342;7.908;2022-12-08T16:05:30;4.90;99.90
48836;DHT22;62581;47.342;7.908;2022-12-08T16:07:58;4.70;99.90
48836;DHT22;62581;47.342;7.908;2022-12-08T16:10:26;4.70;99.90
48836;DHT22;62581;47.342;7.908;2022-12-08T16:12:53;4.60;99.90
48836;DHT22;62581;47.342;7.908;2022-12-08T16:15:40;4.50;99.90